Time;durP1;ratioP1;P1;durP2;ratioP2;P2;SDS_P1;SDS_P2;PMS_P1;PMS_P2;Temp;Humidity;BMP_temperature;BMP_pressure;BME280_temperature;BME280_humidity;BME280_pressure;Samples;Min_cycle;Max_cycle;Signal;HPM_P1;HPM_P2
2022/08/25 00:01:45;;;;;;;37.38;31.60;;;;;;;;;;5066042;28;20071;-62
2022/08/25 00:04:14;;;;;;;37.65;30.70;;;;;;;;;;5062116;28;20120;-63
2022/08/25 00:06:42;;;;;;;38.85;31.55;;;;;;;;;;5055251;28;20059;-63
2022/08/25 00:09:10;;;;;;;34.40;30.73;;;;;;;;;;5068731;28;20049;-64
2022/08/25 00:11:38;;;;;;;37.53;30.98;;;;;;;;;;5066971;28;20048;-63
2022/08/25 00:14:08;;;;;;;32.13;28.65;;;;;;;;;;5063635;28;20061;-63
2022/08/25 00:16:35;;;;;;;36.10;31.50;;;;;;;;;;5061418;28;20052;-62
2022/08/25 00:19:05;;;;;;;36.90;32.10;;;;;;;;;;5069953;28;20494;-63
2022/08/25 00:21:32;;;;;;;36.28;30.52;;;;;;;;;;5065642;28;20053;-66
2022/08/25 00:24:01;;;;;;;38.85;33.60;;;;;;;;;;5060652;28;20049;-63
2022/08/25 00:26:28;;;;;;;38.20;30.42;;;;;;;;;;5066186;28;20553;-63
2022/08/25 00:28:55;;;;;;;33.22;28.90;;;;;;;;;;5067044;28;20052;-64
2022/08/25 00:31:24;;;;;;;38.28;33.08;;;;;;;;;;5050582;28;20066;-63
2022/08/25 00:33:52;;;;;;;36.00;29.63;;;;;;;;;;5064266;28;20056;-62
2022/08/25 00:36:20;;;;;;;36.08;32.13;;;;;;;;;;5064933;28;20053;-63
2022/08/25 00:38:48;;;;;;;38.50;31.02;;;;;;;;;;5056150;28;20040;-62
2022/08/25 00:41:17;;;;;;;36.90;30.35;;;;;;;;;;5064099;28;20503;-63
2022/08/25 00:43:46;;;;;;;38.88;30.35;;;;;;;;;;5063729;28;20044;-62
2022/08/25 00:46:14;;;;;;;39.38;29.73;;;;;;;;;;5066935;28;20049;-62
2022/08/25 00:48:44;;;;;;;38.10;28.83;;;;;;;;;;5070900;28;20056;-61
2022/08/25 00:51:13;;;;;;;35.60;30.10;;;;;;;;;;5068366;28;20531;-63
2022/08/25 00:53:41;;;;;;;36.10;29.80;;;;;;;;;;5069450;28;20056;-62
2022/08/25 00:56:11;;;;;;;50.70;32.15;;;;;;;;;;5065422;28;20054;-63
2022/08/25 00:58:39;;;;;;;36.80;32.22;;;;;;;;;;5064974;28;20055;-63
2022/08/25 01:01:06;;;;;;;36.65;30.52;;;;;;;;;;5064935;28;20048;-63
2022/08/25 01:03:34;;;;;;;34.95;29.85;;;;;;;;;;5066735;28;20048;-62
2022/08/25 01:06:03;;;;;;;35.20;29.80;;;;;;;;;;5050972;28;20052;-61
2022/08/25 01:08:31;;;;;;;34.85;30.27;;;;;;;;;;5067301;28;20574;-62
2022/08/25 01:10:59;;;;;;;31.73;28.00;;;;;;;;;;5071509;28;20052;-63
2022/08/25 01:13:30;;;;;;;35.53;29.02;;;;;;;;;;5064183;28;20086;-62
2022/08/25 01:15:58;;;;;;;33.70;26.92;;;;;;;;;;5063492;28;20688;-63
2022/08/25 01:18:26;;;;;;;34.55;27.02;;;;;;;;;;5055458;28;20143;-64
2022/08/25 01:20:55;;;;;;;32.33;26.98;;;;;;;;;;5067421;28;20407;-62
2022/08/25 01:23:23;;;;;;;37.83;28.15;;;;;;;;;;5064007;28;20052;-62
2022/08/25 01:25:52;;;;;;;30.38;27.00;;;;;;;;;;5069124;28;20117;-63
2022/08/25 01:28:20;;;;;;;28.73;24.42;;;;;;;;;;5066428;28;20647;-62
2022/08/25 01:30:48;;;;;;;26.40;23.63;;;;;;;;;;5061967;28;20521;-63
2022/08/25 01:33:16;;;;;;;25.33;22.58;;;;;;;;;;5067034;28;20055;-62
2022/08/25 01:35:44;;;;;;;27.83;24.83;;;;;;;;;;5067595;28;20499;-62
2022/08/25 01:38:12;;;;;;;32.22;24.45;;;;;;;;;;5066351;28;20048;-61
2022/08/25 01:40:41;;;;;;;30.23;23.27;;;;;;;;;;5069397;28;20063;-62
2022/08/25 01:43:12;;;;;;;26.25;21.98;;;;;;;;;;5067706;28;20051;-63
2022/08/25 01:45:40;;;;;;;32.13;21.35;;;;;;;;;;5071041;28;20565;-62
2022/08/25 01:48:08;;;;;;;29.38;22.33;;;;;;;;;;5065469;28;20432;-61
2022/08/25 01:50:35;;;;;;;26.45;21.52;;;;;;;;;;5050943;28;20106;-62
2022/08/25 01:53:04;;;;;;;26.27;22.20;;;;;;;;;;5058997;28;20523;-63
2022/08/25 01:55:50;;;;;;;25.13;20.27;;;;;;;;;;5068962;28;20048;-61
2022/08/25 01:58:17;;;;;;;24.05;20.42;;;;;;;;;;5065286;28;20060;-62
2022/08/25 02:00:49;;;;;;;32.10;20.42;;;;;;;;;;5068300;28;20662;-63
2022/08/25 02:03:17;;;;;;;23.95;17.95;;;;;;;;;;5061735;28;20217;-62
2022/08/25 02:05:44;;;;;;;20.48;16.02;;;;;;;;;;5049075;28;20107;-62
2022/08/25 02:08:11;;;;;;;22.08;17.30;;;;;;;;;;5067329;28;20122;-62
2022/08/25 02:10:40;;;;;;;20.30;15.40;;;;;;;;;;5069089;28;21243;-65
2022/08/25 02:13:08;;;;;;;22.48;15.02;;;;;;;;;;5066791;28;20056;-62
2022/08/25 02:15:36;;;;;;;16.90;14.32;;;;;;;;;;5064366;28;20601;-62
2022/08/25 02:18:03;;;;;;;22.33;14.68;;;;;;;;;;5063053;28;20457;-62
2022/08/25 02:20:30;;;;;;;17.95;13.15;;;;;;;;;;5070772;28;20052;-62
2022/08/25 02:22:57;;;;;;;17.75;13.07;;;;;;;;;;5044583;28;20048;-63
2022/08/25 02:25:25;;;;;;;16.65;12.20;;;;;;;;;;5066131;28;20048;-62
2022/08/25 02:27:53;;;;;;;17.25;11.93;;;;;;;;;;5059249;28;20110;-63
2022/08/25 02:30:20;;;;;;;12.43;10.55;;;;;;;;;;5063265;28;20101;-63
2022/08/25 02:32:48;;;;;;;19.35;11.13;;;;;;;;;;5065500;28;20090;-62
2022/08/25 02:35:15;;;;;;;17.77;10.07;;;;;;;;;;5049609;28;20138;-62
2022/08/25 02:37:42;;;;;;;15.65;10.07;;;;;;;;;;5056602;28;20139;-62
2022/08/25 02:40:11;;;;;;;14.63;9.75;;;;;;;;;;5062754;28;20095;-62
2022/08/25 02:42:38;;;;;;;14.73;9.80;;;;;;;;;;5058271;28;20045;-62
2022/08/25 02:45:08;;;;;;;15.30;9.82;;;;;;;;;;5059224;28;20573;-63
2022/08/25 02:47:35;;;;;;;14.80;9.18;;;;;;;;;;5064028;28;20052;-63
2022/08/25 02:50:03;;;;;;;12.52;8.73;;;;;;;;;;5065609;28;20052;-62
2022/08/25 02:52:30;;;;;;;14.75;9.20;;;;;;;;;;5068721;28;20396;-63
2022/08/25 02:54:57;;;;;;;15.10;9.25;;;;;;;;;;5065009;28;20540;-63
2022/08/25 02:57:24;;;;;;;14.45;8.90;;;;;;;;;;5060906;28;20052;-64
2022/08/25 02:59:53;;;;;;;10.30;8.25;;;;;;;;;;5060810;28;20129;-63
2022/08/25 03:02:21;;;;;;;12.52;7.97;;;;;;;;;;5068305;28;20074;-62
2022/08/25 03:04:49;;;;;;;16.60;8.57;;;;;;;;;;5051760;28;20457;-62
2022/08/25 03:07:16;;;;;;;9.43;7.55;;;;;;;;;;5065492;28;20051;-61
2022/08/25 03:09:43;;;;;;;12.82;7.75;;;;;;;;;;5066500;28;20770;-62
2022/08/25 03:12:11;;;;;;;9.90;7.40;;;;;;;;;;5064572;28;20088;-62
2022/08/25 03:14:38;;;;;;;15.57;7.00;;;;;;;;;;5063698;28;20404;-63
2022/08/25 03:17:06;;;;;;;12.50;7.05;;;;;;;;;;5059080;28;20083;-63
2022/08/25 03:19:35;;;;;;;8.60;7.10;;;;;;;;;;5065280;28;20055;-62
2022/08/25 03:22:02;;;;;;;12.30;7.07;;;;;;;;;;5064437;28;20121;-62
2022/08/25 03:24:29;;;;;;;14.43;7.70;;;;;;;;;;5065214;28;20052;-64
2022/08/25 03:26:55;;;;;;;12.88;7.28;;;;;;;;;;5057704;28;20052;-62
2022/08/25 03:29:23;;;;;;;11.80;7.45;;;;;;;;;;5059451;28;20045;-63
2022/08/25 03:31:51;;;;;;;14.02;6.57;;;;;;;;;;5068949;28;20754;-62
2022/08/25 03:34:19;;;;;;;8.15;5.93;;;;;;;;;;5057625;28;20048;-62
2022/08/25 03:36:49;;;;;;;11.63;5.68;;;;;;;;;;5046487;28;20052;-62
2022/08/25 03:39:17;;;;;;;8.55;6.07;;;;;;;;;;5059228;28;20115;-62
2022/08/25 03:41:44;;;;;;;9.77;5.95;;;;;;;;;;5061591;28;20109;-63
2022/08/25 03:44:12;;;;;;;18.95;6.38;;;;;;;;;;5062433;28;20049;-62
2022/08/25 03:46:40;;;;;;;12.23;6.50;;;;;;;;;;5064188;28;20052;-63
2022/08/25 03:49:10;;;;;;;10.57;6.47;;;;;;;;;;5045636;28;20049;-63
2022/08/25 03:51:37;;;;;;;12.50;5.80;;;;;;;;;;5059557;28;20063;-62
2022/08/25 03:54:06;;;;;;;11.18;6.45;;;;;;;;;;5062617;28;20131;-62
2022/08/25 03:56:34;;;;;;;9.70;6.38;;;;;;;;;;5060259;28;20102;-62
2022/08/25 03:59:01;;;;;;;13.85;6.85;;;;;;;;;;5056579;28;20057;-65
2022/08/25 04:01:28;;;;;;;11.00;6.00;;;;;;;;;;5043121;28;20055;-61
2022/08/25 04:03:56;;;;;;;12.65;6.32;;;;;;;;;;5056377;28;20053;-62
2022/08/25 04:06:23;;;;;;;8.30;5.80;;;;;;;;;;5054571;28;20037;-63
2022/08/25 04:08:51;;;;;;;12.68;5.85;;;;;;;;;;5057134;28;20396;-62
2022/08/25 04:11:21;;;;;;;11.15;5.68;;;;;;;;;;5062130;28;20091;-61
2022/08/25 04:13:49;;;;;;;11.07;5.38;;;;;;;;;;5041826;28;20048;-62
2022/08/25 04:16:17;;;;;;;11.13;5.70;;;;;;;;;;5063296;28;20651;-62
2022/08/25 04:18:46;;;;;;;9.10;5.30;;;;;;;;;;5058147;28;20143;-63
2022/08/25 04:21:14;;;;;;;10.07;5.35;;;;;;;;;;5070273;28;20479;-62
2022/08/25 04:23:42;;;;;;;14.50;5.28;;;;;;;;;;5062830;28;20061;-63
2022/08/25 04:26:10;;;;;;;12.63;5.60;;;;;;;;;;5073827;28;20041;-62
2022/08/25 04:28:39;;;;;;;9.82;5.30;;;;;;;;;;5049287;28;20057;-62
2022/08/25 04:31:07;;;;;;;8.48;5.30;;;;;;;;;;5062939;28;20048;-62
2022/08/25 04:33:34;;;;;;;9.77;4.88;;;;;;;;;;5061912;28;20229;-62
2022/08/25 04:36:02;;;;;;;7.63;5.22;;;;;;;;;;5060694;28;20068;-61
2022/08/25 04:38:29;;;;;;;11.30;4.55;;;;;;;;;;5055401;28;20048;-61
2022/08/25 04:40:57;;;;;;;11.95;4.85;;;;;;;;;;5047086;28;20064;-63
2022/08/25 04:43:24;;;;;;;7.13;4.95;;;;;;;;;;5061050;28;20095;-62
2022/08/25 04:45:53;;;;;;;9.75;4.70;;;;;;;;;;5055372;28;20416;-62
2022/08/25 04:48:20;;;;;;;9.77;4.65;;;;;;;;;;5049020;28;20052;-62
2022/08/25 04:50:48;;;;;;;8.77;4.18;;;;;;;;;;5075246;28;20052;-61
2022/08/25 04:53:15;;;;;;;9.32;4.30;;;;;;;;;;5067449;28;20064;-63
2022/08/25 04:55:42;;;;;;;10.35;4.65;;;;;;;;;;5060283;28;20052;-63
2022/08/25 04:58:10;;;;;;;9.27;3.85;;;;;;;;;;5068898;28;20052;-62
2022/08/25 05:00:38;;;;;;;6.43;4.22;;;;;;;;;;5069084;28;20056;-63
2022/08/25 05:03:07;;;;;;;8.10;4.18;;;;;;;;;;5070128;28;20106;-62
2022/08/25 05:05:36;;;;;;;6.25;4.38;;;;;;;;;;5065487;28;20502;-62
2022/08/25 05:08:04;;;;;;;5.65;3.95;;;;;;;;;;5069988;28;20695;-61
2022/08/25 05:10:31;;;;;;;9.32;3.88;;;;;;;;;;5064584;28;20585;-62
2022/08/25 05:12:59;;;;;;;6.50;4.13;;;;;;;;;;5071144;28;20048;-62
2022/08/25 05:18:13;;;;;;;10.60;3.85;;;;;;;;;;5070794;28;20051;-62
2022/08/25 05:20:40;;;;;;;9.70;4.00;;;;;;;;;;5052020;28;20063;-64
2022/08/25 05:23:07;;;;;;;10.30;3.80;;;;;;;;;;5064430;28;20545;-64
2022/08/25 05:25:34;;;;;;;12.77;4.32;;;;;;;;;;5069750;28;20032;-62
2022/08/25 05:28:02;;;;;;;12.48;4.00;;;;;;;;;;5057462;28;20057;-62
2022/08/25 05:30:29;;;;;;;6.93;3.50;;;;;;;;;;5067032;28;20106;-65
2022/08/25 05:32:57;;;;;;;13.52;3.85;;;;;;;;;;5064235;28;20568;-61
2022/08/25 05:35:25;;;;;;;9.88;3.78;;;;;;;;;;5071772;28;20123;-62
2022/08/25 05:37:52;;;;;;;8.90;4.13;;;;;;;;;;5060497;28;20056;-62
2022/08/25 05:40:20;;;;;;;10.02;3.80;;;;;;;;;;5051730;28;20056;-63
2022/08/25 05:42:47;;;;;;;9.57;4.03;;;;;;;;;;5066679;28;20723;-63
2022/08/25 05:45:14;;;;;;;9.98;3.60;;;;;;;;;;5067626;28;20049;-64
2022/08/25 05:47:42;;;;;;;11.88;4.40;;;;;;;;;;5063029;28;20560;-63
2022/08/25 05:50:10;;;;;;;8.45;3.70;;;;;;;;;;5066717;28;20425;-62
2022/08/25 05:52:39;;;;;;;10.27;4.22;;;;;;;;;;5071816;28;20056;-65
2022/08/25 05:55:07;;;;;;;10.50;4.45;;;;;;;;;;5071959;28;20132;-64
2022/08/25 05:57:34;;;;;;;7.70;3.38;;;;;;;;;;5067198;28;20380;-64
2022/08/25 06:00:02;;;;;;;8.38;3.78;;;;;;;;;;5072318;28;20645;-63
2022/08/25 06:02:42;;;;;;;12.02;3.85;;;;;;;;;;5069952;28;20056;-62
2022/08/25 06:05:09;;;;;;;6.03;3.80;;;;;;;;;;5061529;28;20070;-63
2022/08/25 06:07:38;;;;;;;10.30;4.28;;;;;;;;;;5070000;28;20056;-62
2022/08/25 06:10:09;;;;;;;14.05;3.40;;;;;;;;;;5070508;28;20608;-63
2022/08/25 06:12:36;;;;;;;5.45;3.60;;;;;;;;;;5061692;28;20123;-61
2022/08/25 06:15:04;;;;;;;7.90;3.30;;;;;;;;;;5061347;28;20495;-61
2022/08/25 06:17:33;;;;;;;9.90;3.60;;;;;;;;;;5060661;28;20403;-63
2022/08/25 06:20:02;;;;;;;10.05;4.07;;;;;;;;;;5063052;28;20048;-61
2022/08/25 06:22:29;;;;;;;5.75;3.40;;;;;;;;;;5058719;28;20094;-64
2022/08/25 06:24:58;;;;;;;10.65;3.80;;;;;;;;;;5062046;28;20056;-62
2022/08/25 06:27:25;;;;;;;7.70;3.40;;;;;;;;;;5061119;28;20052;-63
2022/08/25 06:29:52;;;;;;;11.00;4.78;;;;;;;;;;5061674;28;20134;-63
2022/08/25 06:32:20;;;;;;;10.13;4.20;;;;;;;;;;5043981;28;20056;-63
2022/08/25 06:34:47;;;;;;;6.50;3.70;;;;;;;;;;5060744;28;20132;-62
2022/08/25 06:37:14;;;;;;;7.75;3.42;;;;;;;;;;5062873;28;20040;-62
2022/08/25 06:39:41;;;;;;;8.82;3.67;;;;;;;;;;5060008;28;20103;-63
2022/08/25 06:42:10;;;;;;;8.38;3.67;;;;;;;;;;5062174;28;20474;-62
2022/08/25 06:44:37;;;;;;;14.38;3.60;;;;;;;;;;5062490;28;21577;-65
2022/08/25 06:47:04;;;;;;;9.25;4.43;;;;;;;;;;5060576;28;20090;-63
2022/08/25 06:49:31;;;;;;;7.68;3.13;;;;;;;;;;5061089;28;20098;-61
2022/08/25 06:51:59;;;;;;;10.63;3.17;;;;;;;;;;5064000;28;20040;-63
2022/08/25 06:54:26;;;;;;;9.45;3.53;;;;;;;;;;5063126;28;20106;-63
2022/08/25 06:56:53;;;;;;;7.47;3.13;;;;;;;;;;5058610;28;20479;-63
2022/08/25 06:59:22;;;;;;;6.60;3.70;;;;;;;;;;5058122;28;20057;-62
2022/08/25 07:01:49;;;;;;;8.27;3.28;;;;;;;;;;5034390;28;20068;-61
2022/08/25 07:04:16;;;;;;;6.85;3.15;;;;;;;;;;5058910;28;20079;-62
2022/08/25 07:06:43;;;;;;;6.68;2.90;;;;;;;;;;5054516;28;20040;-62
2022/08/25 07:09:11;;;;;;;8.48;2.95;;;;;;;;;;5037914;28;20083;-63
2022/08/25 07:11:39;;;;;;;11.43;2.90;;;;;;;;;;5057268;28;20069;-63
2022/08/25 07:14:07;;;;;;;14.18;3.40;;;;;;;;;;5059247;28;20084;-62
2022/08/25 07:16:36;;;;;;;9.70;2.90;;;;;;;;;;5055900;28;20057;-62
2022/08/25 07:19:04;;;;;;;8.60;3.55;;;;;;;;;;5059091;28;20118;-62
2022/08/25 07:21:34;;;;;;;7.25;3.40;;;;;;;;;;5057661;28;20059;-63
2022/08/25 07:24:02;;;;;;;8.25;3.38;;;;;;;;;;5057048;28;20098;-61
2022/08/25 07:26:31;;;;;;;13.25;3.10;;;;;;;;;;5046583;28;20105;-62
2022/08/25 07:28:58;;;;;;;5.15;3.03;;;;;;;;;;5060294;28;20052;-65
2022/08/25 07:31:26;;;;;;;4.97;2.70;;;;;;;;;;5060765;28;20049;-64
2022/08/25 07:36:40;;;;;;;14.45;3.30;;;;;;;;;;5069102;28;20154;-63
2022/08/25 07:39:07;;;;;;;6.03;2.95;;;;;;;;;;5062807;28;20519;-63
2022/08/25 07:41:37;;;;;;;6.18;3.17;;;;;;;;;;5064183;28;20047;-61
2022/08/25 07:44:04;;;;;;;8.20;2.67;;;;;;;;;;5061945;28;20084;-62
2022/08/25 07:46:32;;;;;;;11.63;2.90;;;;;;;;;;5042119;28;20048;-62
2022/08/25 07:49:01;;;;;;;11.98;3.03;;;;;;;;;;5060811;28;20541;-64
2022/08/25 07:51:28;;;;;;;7.13;2.80;;;;;;;;;;5058746;28;20049;-66
2022/08/25 07:53:55;;;;;;;6.75;2.65;;;;;;;;;;5044037;28;20068;-65
2022/08/25 07:56:23;;;;;;;7.95;2.90;;;;;;;;;;5063723;28;20052;-66
2022/08/25 07:58:50;;;;;;;9.02;2.47;;;;;;;;;;5070719;28;20044;-66
2022/08/25 08:01:18;;;;;;;7.35;2.80;;;;;;;;;;5051616;28;20056;-66
2022/08/25 08:03:46;;;;;;;9.23;3.00;;;;;;;;;;5064427;28;20083;-66
2022/08/25 08:06:15;;;;;;;6.47;2.80;;;;;;;;;;5065431;28;20114;-67
2022/08/25 08:08:44;;;;;;;7.75;3.28;;;;;;;;;;5057158;28;20060;-66
2022/08/25 08:11:15;;;;;;;8.73;2.80;;;;;;;;;;5066257;28;20057;-66
2022/08/25 08:13:42;;;;;;;11.27;2.72;;;;;;;;;;5062137;28;20059;-65
2022/08/25 08:16:09;;;;;;;6.68;2.92;;;;;;;;;;5066734;28;20126;-67
2022/08/25 08:18:37;;;;;;;6.32;2.78;;;;;;;;;;5062685;28;20122;-66
2022/08/25 08:21:05;;;;;;;4.38;2.50;;;;;;;;;;5059373;28;20049;-67
2022/08/25 08:23:33;;;;;;;10.43;3.42;;;;;;;;;;5065122;28;20074;-68
2022/08/25 08:26:00;;;;;;;6.47;2.70;;;;;;;;;;5064986;28;20549;-66
2022/08/25 08:28:28;;;;;;;10.68;2.88;;;;;;;;;;5064830;28;20080;-66
2022/08/25 08:30:55;;;;;;;9.02;3.00;;;;;;;;;;5063325;28;20093;-67
2022/08/25 08:33:24;;;;;;;8.73;2.78;;;;;;;;;;5062327;28;20072;-66
2022/08/25 08:35:56;;;;;;;312.25;15.65;;;;;;;;;;5063271;28;20048;-66
2022/08/25 08:38:23;;;;;;;8.50;2.40;;;;;;;;;;5063783;28;20496;-66
2022/08/25 08:43:37;;;;;;;7.72;2.38;;;;;;;;;;5060920;28;20047;-70
2022/08/25 08:46:04;;;;;;;11.88;2.58;;;;;;;;;;5051567;28;20057;-68
2022/08/25 08:48:49;;;;;;;4.72;2.60;;;;;;;;;;5063092;28;20052;-68
2022/08/25 08:51:20;;;;;;;9.23;2.38;;;;;;;;;;5066119;28;20106;-69
2022/08/25 08:53:51;;;;;;;6.07;2.25;;;;;;;;;;5069240;28;20110;-68
2022/08/25 08:56:21;;;;;;;8.25;2.00;;;;;;;;;;5048435;28;20059;-68
2022/08/25 08:58:50;;;;;;;13.48;2.50;;;;;;;;;;5066729;28;20542;-68
2022/08/25 09:01:19;;;;;;;7.20;2.42;;;;;;;;;;5069616;28;20052;-68
2022/08/25 09:03:49;;;;;;;7.28;2.28;;;;;;;;;;5069728;28;20103;-68
2022/08/25 09:06:19;;;;;;;5.63;2.47;;;;;;;;;;5061422;28;20052;-68
2022/08/25 09:08:47;;;;;;;5.55;2.40;;;;;;;;;;5066057;28;20052;-69
2022/08/25 09:11:22;;;;;;;3.58;2.20;;;;;;;;;;5068054;28;20123;-67
2022/08/25 09:14:00;;;;;;;5.32;1.95;;;;;;;;;;5069695;28;20048;-68
2022/08/25 09:19:30;;;;;;;6.18;2.22;;;;;;;;;;5074909;28;20055;-68
2022/08/25 09:22:02;;;;;;;6.38;2.10;;;;;;;;;;5062127;28;20137;-69
2022/08/25 09:24:37;;;;;;;7.22;2.08;;;;;;;;;;5067596;28;20049;-69
2022/08/25 09:27:11;;;;;;;7.38;2.30;;;;;;;;;;5067925;28;20044;-69
2022/08/25 09:29:48;;;;;;;6.57;2.10;;;;;;;;;;5065760;28;20133;-68
2022/08/25 09:32:16;;;;;;;8.63;2.00;;;;;;;;;;5065357;28;20060;-67
2022/08/25 09:34:44;;;;;;;17.10;3.15;;;;;;;;;;5058121;28;20053;-68
2022/08/25 09:37:11;;;;;;;6.57;1.95;;;;;;;;;;5061311;28;20052;-68
2022/08/25 09:39:40;;;;;;;4.10;1.88;;;;;;;;;;5060428;28;20056;-69
2022/08/25 09:42:08;;;;;;;43.72;4.65;;;;;;;;;;5041226;28;20575;-68
2022/08/25 09:44:42;;;;;;;10.73;2.17;;;;;;;;;;5060078;28;20056;-68
2022/08/25 09:47:19;;;;;;;6.72;1.98;;;;;;;;;;5058060;28;20033;-69
2022/08/25 09:49:48;;;;;;;75.05;5.78;;;;;;;;;;5058958;28;20507;-69
2022/08/25 09:52:33;;;;;;;7.63;2.10;;;;;;;;;;5044670;28;20052;-68
2022/08/25 09:55:01;;;;;;;11.27;2.15;;;;;;;;;;5058892;28;20053;-68
2022/08/25 09:57:33;;;;;;;9.77;1.80;;;;;;;;;;5059083;28;20063;-68
2022/08/25 10:00:15;;;;;;;2.83;1.67;;;;;;;;;;5065044;28;20045;-68
2022/08/25 10:02:44;;;;;;;4.38;1.75;;;;;;;;;;5061866;28;20160;-68
2022/08/25 10:05:19;;;;;;;5.90;2.22;;;;;;;;;;5062862;28;20053;-68
2022/08/25 10:07:50;;;;;;;5.45;1.88;;;;;;;;;;5038359;28;20040;-69
2022/08/25 10:10:22;;;;;;;7.20;2.08;;;;;;;;;;5065876;28;20053;-68
2022/08/25 10:12:49;;;;;;;7.83;1.67;;;;;;;;;;5061457;28;20053;-67
2022/08/25 10:15:18;;;;;;;4.43;1.90;;;;;;;;;;5060380;28;20044;-69
2022/08/25 10:17:46;;;;;;;6.10;1.63;;;;;;;;;;5047590;28;20056;-67
2022/08/25 10:20:17;;;;;;;11.32;2.00;;;;;;;;;;5052922;28;20057;-68
2022/08/25 10:22:45;;;;;;;6.45;1.80;;;;;;;;;;5064313;28;20484;-68
2022/08/25 10:25:13;;;;;;;3.97;1.67;;;;;;;;;;5064917;28;20056;-68
2022/08/25 10:27:46;;;;;;;7.15;1.60;;;;;;;;;;5062169;28;20125;-68
2022/08/25 10:30:18;;;;;;;6.00;1.70;;;;;;;;;;5060978;28;20454;-69
2022/08/25 10:33:02;;;;;;;7.35;1.65;;;;;;;;;;5064268;28;20604;-68
2022/08/25 10:35:31;;;;;;;4.32;1.50;;;;;;;;;;5058019;28;20059;-68
2022/08/25 10:38:04;;;;;;;3.75;1.80;;;;;;;;;;5061687;28;20192;-68
2022/08/25 10:40:31;;;;;;;;;;;;;;;;;;5062172;28;20072;-69
2022/08/25 10:43:05;;;;;;;5.63;2.05;;;;;;;;;;5064800;28;20053;-68
2022/08/25 10:45:42;;;;;;;6.07;2.00;;;;;;;;;;5065515;28;20049;-69
2022/08/25 10:48:24;;;;;;;3.55;1.98;;;;;;;;;;5058987;28;20097;-68
2022/08/25 10:50:55;;;;;;;4.77;1.80;;;;;;;;;;5062267;28;21340;-68
2022/08/25 10:53:28;;;;;;;3.78;1.70;;;;;;;;;;5059640;28;20113;-68
2022/08/25 10:56:03;;;;;;;4.80;1.80;;;;;;;;;;5046902;28;20091;-69
2022/08/25 10:58:35;;;;;;;11.70;2.00;;;;;;;;;;5063329;28;20048;-67
2022/08/25 11:01:05;;;;;;;5.05;1.70;;;;;;;;;;5067162;28;20056;-67
2022/08/25 11:03:44;;;;;;;8.18;2.03;;;;;;;;;;5061230;28;20040;-69
2022/08/25 11:06:17;;;;;;;4.47;2.00;;;;;;;;;;5059999;28;20048;-67
2022/08/25 11:08:48;;;;;;;7.82;1.92;;;;;;;;;;5057397;28;20151;-68
2022/08/25 11:11:23;;;;;;;8.05;1.92;;;;;;;;;;5039910;28;20056;-69
2022/08/25 11:13:53;;;;;;;5.28;1.92;;;;;;;;;;5055797;28;20072;-68
2022/08/25 11:16:22;;;;;;;14.40;2.10;;;;;;;;;;5059684;28;20565;-68
2022/08/25 11:18:53;;;;;;;4.40;1.88;;;;;;;;;;5062294;28;20048;-69
2022/08/25 11:21:24;;;;;;;4.90;1.75;;;;;;;;;;5058121;28;20052;-68
2022/08/25 11:23:54;;;;;;;9.45;2.40;;;;;;;;;;5041206;28;20513;-68
2022/08/25 11:26:28;;;;;;;3.88;1.65;;;;;;;;;;5060316;28;20048;-69
2022/08/25 11:28:59;;;;;;;6.47;1.92;;;;;;;;;;5059352;28;20499;-68
2022/08/25 11:31:27;;;;;;;3.78;1.90;;;;;;;;;;5061923;28;20048;-68
2022/08/25 11:33:55;;;;;;;8.30;2.00;;;;;;;;;;5063332;28;20052;-68
2022/08/25 11:36:26;;;;;;;5.00;1.77;;;;;;;;;;5064462;28;20056;-69
2022/08/25 11:38:58;;;;;;;4.75;1.90;;;;;;;;;;5063294;28;20056;-69
2022/08/25 11:41:27;;;;;;;5.68;1.98;;;;;;;;;;5067208;28;20048;-69
2022/08/25 11:44:05;;;;;;;3.90;2.10;;;;;;;;;;5064643;28;20637;-69
2022/08/25 11:46:44;;;;;;;7.10;1.90;;;;;;;;;;5064086;28;20154;-69
2022/08/25 11:49:27;;;;;;;3.95;2.00;;;;;;;;;;5046741;28;20660;-69
2022/08/25 11:51:56;;;;;;;5.50;2.13;;;;;;;;;;5064167;28;20049;-68
2022/08/25 11:54:25;;;;;;;4.40;2.15;;;;;;;;;;5042286;28;20059;-69
2022/08/25 11:56:55;;;;;;;4.75;1.90;;;;;;;;;;5061141;28;20056;-69
2022/08/25 11:59:41;;;;;;;6.13;2.00;;;;;;;;;;5060084;28;20110;-70
2022/08/25 12:02:08;;;;;;;6.97;2.28;;;;;;;;;;5062532;28;20503;-69
2022/08/25 12:04:38;;;;;;;6.10;2.15;;;;;;;;;;5058404;28;20148;-69
2022/08/25 12:07:20;;;;;;;4.70;2.10;;;;;;;;;;5059534;28;20675;-68
2022/08/25 12:10:08;;;;;;;3.95;2.35;;;;;;;;;;5058918;28;20853;-70
2022/08/25 12:12:37;;;;;;;3.58;2.15;;;;;;;;;;5054696;28;20106;-69
2022/08/25 12:15:15;;;;;;;8.20;2.20;;;;;;;;;;5041740;28;20052;-69
2022/08/25 12:17:42;;;;;;;3.95;2.58;;;;;;;;;;5061594;28;20055;-70
2022/08/25 12:20:09;;;;;;;4.68;2.50;;;;;;;;;;5061563;28;20110;-69
2022/08/25 12:22:50;;;;;;;7.70;2.40;;;;;;;;;;5063257;28;20071;-69
2022/08/25 12:25:24;;;;;;;6.85;2.25;;;;;;;;;;5062512;28;20060;-70
2022/08/25 12:27:56;;;;;;;6.85;2.15;;;;;;;;;;5066065;28;20103;-69
2022/08/25 12:30:26;;;;;;;7.40;2.55;;;;;;;;;;5061129;28;20052;-69
2022/08/25 12:33:00;;;;;;;8.93;2.30;;;;;;;;;;5061420;28;20439;-69
2022/08/25 12:35:29;;;;;;;5.60;2.47;;;;;;;;;;5066343;28;20072;-69
2022/08/25 12:37:59;;;;;;;7.22;2.70;;;;;;;;;;5059699;28;20102;-69
2022/08/25 12:40:30;;;;;;;5.00;2.15;;;;;;;;;;5060801;28;20045;-69
2022/08/25 12:43:03;;;;;;;8.10;2.50;;;;;;;;;;5065812;28;20518;-68
2022/08/25 12:45:37;;;;;;;8.88;2.42;;;;;;;;;;5070185;28;20470;-70
2022/08/25 12:48:23;;;;;;;3.88;2.30;;;;;;;;;;5053913;28;20119;-69
2022/08/25 12:50:56;;;;;;;4.55;2.50;;;;;;;;;;5071510;28;20507;-70
2022/08/25 12:53:28;;;;;;;4.25;3.00;;;;;;;;;;5068825;28;20445;-69
2022/08/25 12:56:00;;;;;;;4.25;2.58;;;;;;;;;;5060155;28;20056;-70
2022/08/25 12:58:33;;;;;;;4.45;2.55;;;;;;;;;;5066182;28;20438;-69
2022/08/25 13:01:11;;;;;;;5.40;2.85;;;;;;;;;;5066429;28;20721;-70
2022/08/25 13:03:48;;;;;;;3.75;2.55;;;;;;;;;;5068968;28;20145;-69
2022/08/25 13:06:19;;;;;;;3.15;2.75;;;;;;;;;;5051868;28;20075;-69
2022/08/25 13:08:59;;;;;;;4.57;2.70;;;;;;;;;;5055006;28;20125;-71
2022/08/25 13:11:33;;;;;;;6.65;3.15;;;;;;;;;;5047120;28;20048;-70
2022/08/25 13:14:05;;;;;;;4.53;3.00;;;;;;;;;;5070096;28;20055;-70
2022/08/25 13:16:33;;;;;;;7.55;3.00;;;;;;;;;;5066854;28;20101;-70
2022/08/25 13:19:05;;;;;;;7.28;3.13;;;;;;;;;;5049737;28;20049;-70
2022/08/25 13:21:36;;;;;;;4.07;2.95;;;;;;;;;;5049793;28;20048;-71
2022/08/25 13:24:07;;;;;;;11.45;3.10;;;;;;;;;;5066878;28;20414;-70
2022/08/25 13:26:38;;;;;;;4.40;3.20;;;;;;;;;;5068561;28;20041;-69
2022/08/25 13:29:13;;;;;;;4.50;2.83;;;;;;;;;;5067908;28;20048;-69
2022/08/25 13:31:52;;;;;;;10.27;3.20;;;;;;;;;;5066060;28;20082;-70
2022/08/25 13:34:20;;;;;;;5.32;2.83;;;;;;;;;;5067241;28;20090;-70
2022/08/25 13:39:36;;;;;;;4.82;2.88;;;;;;;;;;5071409;28;20181;-70
2022/08/25 13:42:12;;;;;;;8.63;3.08;;;;;;;;;;5064983;28;20122;-69
2022/08/25 13:44:39;;;;;;;11.32;3.30;;;;;;;;;;5068479;28;20052;-71
2022/08/25 13:47:07;;;;;;;4.93;3.42;;;;;;;;;;5041709;28;20064;-70
2022/08/25 13:49:35;;;;;;;5.72;2.97;;;;;;;;;;5048196;28;20048;-70
2022/08/25 13:52:03;;;;;;;5.20;3.10;;;;;;;;;;5072727;28;20048;-70
2022/08/25 13:54:31;;;;;;;7.72;3.03;;;;;;;;;;5067890;28;20499;-70
2022/08/25 13:57:07;;;;;;;3.47;2.92;;;;;;;;;;5066697;28;20056;-70
2022/08/25 13:59:36;;;;;;;5.72;2.90;;;;;;;;;;5064735;28;20044;-70
2022/08/25 14:02:03;;;;;;;4.22;2.92;;;;;;;;;;5060939;28;20052;-70
2022/08/25 14:04:31;;;;;;;4.90;2.88;;;;;;;;;;5066792;28;20458;-70
2022/08/25 14:07:26;;;;;;;5.40;3.38;;;;;;;;;;5058719;28;20056;-70
2022/08/25 14:09:54;;;;;;;5.97;3.15;;;;;;;;;;5066446;28;20057;-70
2022/08/25 14:12:31;;;;;;;3.85;3.22;;;;;;;;;;5065713;28;20076;-70
2022/08/25 14:15:00;;;;;;;6.72;4.10;;;;;;;;;;5068978;28;20067;-70
2022/08/25 14:17:27;;;;;;;10.98;3.00;;;;;;;;;;5062989;28;20044;-71
2022/08/25 14:19:54;;;;;;;4.95;3.25;;;;;;;;;;5048040;28;20434;-71
2022/08/25 14:22:21;;;;;;;7.57;3.45;;;;;;;;;;5069397;28;20044;-70
2022/08/25 14:24:49;;;;;;;4.03;3.38;;;;;;;;;;5063005;28;20311;-70
2022/08/25 14:27:17;;;;;;;6.38;3.20;;;;;;;;;;5064548;28;20049;-70
2022/08/25 14:29:46;;;;;;;4.07;3.33;;;;;;;;;;5065488;28;20048;-70
2022/08/25 14:32:15;;;;;;;4.10;2.90;;;;;;;;;;5058844;28;20053;-70
2022/08/25 14:34:42;;;;;;;7.47;3.20;;;;;;;;;;5066290;28;20574;-70
2022/08/25 14:37:13;;;;;;;6.72;3.00;;;;;;;;;;5067408;28;20086;-70
2022/08/25 14:39:40;;;;;;;4.73;2.87;;;;;;;;;;5044601;28;20759;-70
2022/08/25 14:42:07;;;;;;;4.50;3.00;;;;;;;;;;5046042;28;20049;-70
2022/08/25 14:44:34;;;;;;;3.67;3.00;;;;;;;;;;5060129;28;20648;-70
2022/08/25 14:47:03;;;;;;;3.45;3.05;;;;;;;;;;5070482;28;20075;-70
2022/08/25 14:49:33;;;;;;;3.30;3.00;;;;;;;;;;5064248;28;20052;-70
2022/08/25 14:52:02;;;;;;;4.22;2.80;;;;;;;;;;5057996;28;20135;-70
2022/08/25 14:54:29;;;;;;;4.78;2.83;;;;;;;;;;5043491;28;20056;-70
2022/08/25 14:56:56;;;;;;;9.80;3.25;;;;;;;;;;5061545;28;20052;-70
2022/08/25 14:59:24;;;;;;;5.53;2.90;;;;;;;;;;5045264;28;20754;-71
2022/08/25 15:01:51;;;;;;;5.32;3.20;;;;;;;;;;5055014;28;20044;-70
2022/08/25 15:04:21;;;;;;;7.45;3.08;;;;;;;;;;5061709;28;20074;-70